Página principal
METAR-TAF:

METAR-TAF

Aeroportos :

Berbérati, República Centro-Africana

latitude: 04-15N, longitude: 015-48E, altura: 582 m

Observação actual do tempo

O boletim foi feito há 10 horas e 5 minutos, às 10:00 UTC
Vento 10 kt de su-sudeste
Temperatura 32°C
Humidade 59%
Pressão 1014 hPa
Visibilidade 10 km ou mais
Nuvens dispersasa uma altura de 2300 ft

METAR: FEFT 271000Z 16010KT 9999 SCT023 32/23 Q1014

Hora: 21:05 (20:05 UTC)


TAF: em falta

Observações e previsões do tempo de mais de 4000 aeroportos (mensagens METAR e TAF).

As estações disponíveis são os pontos amarelos e vermelhos sobre o mapa.

Mova o rato sobre o mapa para ver o nome da estação.

Depois clique no ponto para visualizar as observações e previsões meteorológicas.

Para alterar o mapa : clique nos botões verdes com uma cruz preta para aumentar o zoom; no botão verde com uma pitada de zoom; ou nas setas verdes para mapas adjacentes.


METAR-TAF: